KP68

Eureka Airport

Nevada, USA
METAR KP68 150053Z AUTO 08013G18KT 26/06 A3012 RMK AO1 SLP119 T02610056
Observed Flight Rules
Aug-15 @ 00:53 UTC (13 minutes ago)
Wind
80° at 13 knots
 Gusting to 18 knots
Temperatures Readings
Current 26°C / 79°F
Dewpoint 6°C / 43°F
Humidity 28%
Altimeter 30.12" Hg
Pressure 1011.9 hPa
Elevation 1809
METAR KP68 150053Z AUTO 08013G18KT 26/06 A3012 RMK AO1 SLP119 T02610056
Observed Flight Rules
Aug-15 @ 00:53 UTC
(13 minutes ago)
Wind
80° at 13 knots
 Gusting to 18 knots
Temperature Dewpoint
26°C / 79°F 6°C / 43°F
Humidity Altimeter Pressure
28% 30.12" Hg 1011.9 hPa